createdAt,value
2018-05-18T00:00:14.767Z,1016.17
2018-05-18T00:01:14.753Z,1016.16
2018-05-18T00:02:14.739Z,1016.14
2018-05-18T00:03:14.770Z,1016.14
2018-05-18T00:04:14.702Z,1016.16
2018-05-18T00:05:14.686Z,1016.16
2018-05-18T00:06:14.668Z,1016.16
2018-05-18T00:07:14.659Z,1016.12
2018-05-18T00:08:14.633Z,1016.20
2018-05-18T00:09:14.617Z,1016.13
2018-05-18T00:10:14.601Z,1016.15
2018-05-18T00:11:14.584Z,1016.14
2018-05-18T00:12:14.570Z,1016.15
2018-05-18T00:13:14.558Z,1016.15
2018-05-18T00:14:14.535Z,1016.16
2018-05-18T00:15:14.516Z,1016.15
2018-05-18T00:16:14.505Z,1016.15
2018-05-18T00:17:14.483Z,1016.12
2018-05-18T00:18:14.465Z,1016.14
2018-05-18T00:19:14.551Z,1016.10
2018-05-18T00:20:14.434Z,1016.09
2018-05-18T00:21:14.468Z,1016.09
2018-05-18T00:22:14.397Z,1016.07
2018-05-18T00:23:14.381Z,1016.09
2018-05-18T00:24:14.367Z,1016.10
2018-05-18T00:25:14.347Z,1016.07
2018-05-18T00:26:14.332Z,1016.06
2018-05-18T00:27:14.315Z,1016.06
2018-05-18T00:28:14.297Z,1016.05
2018-05-18T00:29:14.280Z,1016.05
2018-05-18T00:30:14.265Z,1016.03
2018-05-18T00:31:14.247Z,1016.00
2018-05-18T00:32:14.231Z,1016.00
2018-05-18T00:33:14.291Z,1016.05
2018-05-18T00:34:14.198Z,1016.04
2018-05-18T00:35:14.183Z,1015.99
2018-05-18T00:36:14.165Z,1015.99
2018-05-18T00:37:14.145Z,1016.02
2018-05-18T00:38:14.231Z,1016.03
2018-05-18T00:39:14.111Z,1016.02
2018-05-18T00:40:14.098Z,1015.98
2018-05-18T00:41:14.081Z,1016.02
2018-05-18T00:42:14.067Z,1016.02
2018-05-18T00:43:14.047Z,1016.04
2018-05-18T00:44:14.028Z,1016.03
2018-05-18T00:45:14.012Z,1016.06
2018-05-18T00:46:14.014Z,1016.06
2018-05-18T00:47:13.978Z,1016.04
2018-05-18T00:48:13.961Z,1016.03
2018-05-18T00:49:13.945Z,1016.05
2018-05-18T00:50:13.929Z,1016.04
2018-05-18T00:51:13.936Z,1016.04
2018-05-18T00:52:13.902Z,1016.03
2018-05-18T00:53:13.877Z,1016.00
2018-05-18T00:54:13.861Z,1015.96
2018-05-18T00:55:13.856Z,1015.97
2018-05-18T00:56:13.828Z,1016.02
2018-05-18T00:57:13.810Z,1015.97
2018-05-18T00:58:13.801Z,1015.99
2018-05-18T00:59:13.774Z,1015.95
2018-05-18T01:00:13.761Z,1015.97
2018-05-18T01:01:13.742Z,1015.93
2018-05-18T01:02:13.725Z,1015.97
2018-05-18T01:03:13.708Z,1015.92
2018-05-18T01:04:13.691Z,1015.91
2018-05-18T01:05:13.675Z,1015.93
2018-05-18T01:06:13.658Z,1015.92
2018-05-18T01:07:13.649Z,1015.91
2018-05-18T01:08:13.623Z,1015.91
2018-05-18T01:09:13.610Z,1015.87
2018-05-18T01:10:13.590Z,1015.89
2018-05-18T01:11:13.574Z,1015.90
2018-05-18T01:12:13.556Z,1015.89
2018-05-18T01:13:13.540Z,1015.92
2018-05-18T01:14:13.523Z,1015.89
2018-05-18T01:15:13.505Z,1015.93
2018-05-18T01:16:13.488Z,1015.92
2018-05-18T01:17:13.471Z,1015.95
2018-05-18T01:18:13.456Z,1015.93
2018-05-18T01:19:13.441Z,1015.90
2018-05-18T01:20:13.421Z,1015.91
2018-05-18T01:21:13.456Z,1015.87
2018-05-18T01:22:13.388Z,1015.85
2018-05-18T01:23:13.380Z,1015.84
2018-05-18T01:24:13.358Z,1015.88
2018-05-18T01:25:13.336Z,1015.87
2018-05-18T01:26:13.319Z,1015.87
2018-05-18T01:27:13.301Z,1015.90
2018-05-18T01:28:13.283Z,1015.89
2018-05-18T01:29:13.267Z,1015.88
2018-05-18T01:30:13.254Z,1015.93
2018-05-18T01:31:13.233Z,1015.89
2018-05-18T01:32:13.216Z,1015.88
2018-05-18T01:33:13.208Z,1015.86
2018-05-18T01:34:13.181Z,1015.86
2018-05-18T01:35:13.163Z,1015.90
2018-05-18T01:36:13.148Z,1015.92
2018-05-18T01:37:13.131Z,1015.86
2018-05-18T01:38:13.115Z,1015.91
2018-05-18T01:39:13.098Z,1015.92
2018-05-18T01:40:13.075Z,1015.95
2018-05-18T01:41:13.103Z,1015.93
2018-05-18T01:42:13.042Z,1015.90
2018-05-18T01:43:13.031Z,1015.89
2018-05-18T01:44:13.007Z,1015.87
2018-05-18T01:45:12.991Z,1015.84
2018-05-18T01:46:12.973Z,1015.89
2018-05-18T01:47:12.956Z,1015.84
2018-05-18T01:48:12.937Z,1015.81
2018-05-18T01:49:12.920Z,1015.83
2018-05-18T01:50:12.904Z,1015.82
2018-05-18T01:51:12.885Z,1015.79
2018-05-18T01:52:12.870Z,1015.80
2018-05-18T01:53:12.858Z,1015.83
2018-05-18T01:54:12.835Z,1015.82
2018-05-18T01:55:12.817Z,1015.80
2018-05-18T01:56:12.801Z,1015.86
2018-05-18T01:57:12.784Z,1015.85
2018-05-18T01:58:12.768Z,1015.84
2018-05-18T01:59:12.747Z,1015.86
2018-05-18T02:00:12.730Z,1015.79
2018-05-18T02:01:12.712Z,1015.86
2018-05-18T02:02:12.696Z,1015.80
2018-05-18T02:03:12.677Z,1015.76
2018-05-18T02:04:12.660Z,1015.82
2018-05-18T02:05:12.650Z,1015.82
2018-05-18T02:06:12.636Z,1015.81
2018-05-18T02:07:12.609Z,1015.79
2018-05-18T02:08:12.592Z,1015.82
2018-05-18T02:09:12.573Z,1015.78
2018-05-18T02:10:12.556Z,1015.77
2018-05-18T02:11:12.538Z,1015.77
2018-05-18T02:12:12.519Z,1015.74
2018-05-18T02:13:12.503Z,1015.80
2018-05-18T02:14:12.487Z,1015.76
2018-05-18T02:15:12.477Z,1015.76
2018-05-18T02:16:12.454Z,1015.76
2018-05-18T02:17:12.436Z,1015.80
2018-05-18T02:18:12.417Z,1015.83
2018-05-18T02:19:12.408Z,1015.84
2018-05-18T02:20:12.381Z,1015.82
2018-05-18T02:21:12.371Z,1015.86
2018-05-18T02:22:12.348Z,1015.87
2018-05-18T02:23:12.330Z,1015.84
2018-05-18T02:24:12.316Z,1015.84
2018-05-18T02:25:12.296Z,1015.79
2018-05-18T02:26:12.282Z,1015.86
2018-05-18T02:27:12.262Z,1015.81
2018-05-18T02:28:12.242Z,1015.83
2018-05-18T02:29:12.229Z,1015.83
2018-05-18T02:30:12.214Z,1015.84
2018-05-18T02:31:12.189Z,1015.80
2018-05-18T02:32:12.175Z,1015.78
2018-05-18T02:33:12.155Z,1015.79
2018-05-18T02:34:12.138Z,1015.78
2018-05-18T02:35:12.120Z,1015.80
2018-05-18T02:36:12.122Z,1015.80
2018-05-18T02:37:12.096Z,1015.80
2018-05-18T02:38:12.069Z,1015.80
2018-05-18T02:39:12.051Z,1015.78
2018-05-18T02:40:12.033Z,1015.76
2018-05-18T02:41:12.016Z,1015.72
2018-05-18T02:42:11.999Z,1015.73
2018-05-18T02:43:11.980Z,1015.75
2018-05-18T02:44:11.963Z,1015.73
2018-05-18T02:45:11.948Z,1015.68
2018-05-18T02:46:11.930Z,1015.73
2018-05-18T02:47:11.912Z,1015.74
2018-05-18T02:48:11.893Z,1015.71
2018-05-18T02:49:11.876Z,1015.73
2018-05-18T02:50:11.857Z,1015.73
2018-05-18T02:51:11.840Z,1015.70
2018-05-18T02:52:11.823Z,1015.73
2018-05-18T02:53:11.806Z,1015.77
2018-05-18T02:54:11.790Z,1015.72
2018-05-18T02:55:11.777Z,1015.74
2018-05-18T02:56:11.855Z,1015.76
2018-05-18T02:57:11.736Z,1015.74
2018-05-18T02:58:11.718Z,1015.72
2018-05-18T02:59:11.699Z,1015.73
2018-05-18T03:00:11.684Z,1015.77
2018-05-18T03:01:11.664Z,1015.76
2018-05-18T03:02:11.647Z,1015.75
2018-05-18T03:03:11.629Z,1015.76
2018-05-18T03:04:11.612Z,1015.80
2018-05-18T03:05:11.593Z,1015.79
2018-05-18T03:06:11.577Z,1015.79
2018-05-18T03:07:11.568Z,1015.79
2018-05-18T03:08:11.543Z,1015.80
2018-05-18T03:09:11.522Z,1015.84
2018-05-18T03:10:11.534Z,1015.84
2018-05-18T03:11:11.500Z,1015.78
2018-05-18T03:12:11.473Z,1015.76
2018-05-18T03:13:11.455Z,1015.78
2018-05-18T03:14:11.437Z,1015.78
2018-05-18T03:15:11.418Z,1015.75
2018-05-18T03:16:11.399Z,1015.79
2018-05-18T03:17:11.382Z,1015.85
2018-05-18T03:18:11.365Z,1015.85
2018-05-18T03:19:11.346Z,1015.84
2018-05-18T03:20:11.330Z,1015.88
2018-05-18T03:21:11.312Z,1015.87
2018-05-18T03:22:11.294Z,1015.86
2018-05-18T03:23:11.279Z,1015.89
2018-05-18T03:24:11.257Z,1015.89
2018-05-18T03:25:11.240Z,1015.84
2018-05-18T03:26:11.273Z,1015.84
2018-05-18T03:27:11.204Z,1015.79
2018-05-18T03:28:11.186Z,1015.80
2018-05-18T03:29:11.169Z,1015.84
2018-05-18T03:30:11.155Z,1015.82
2018-05-18T03:31:11.185Z,1015.84
2018-05-18T03:32:11.114Z,1015.85
2018-05-18T03:33:11.097Z,1015.81
2018-05-18T03:34:11.084Z,1015.83
2018-05-18T03:35:11.062Z,1015.85
2018-05-18T03:36:11.046Z,1015.84
2018-05-18T03:37:11.027Z,1015.89
2018-05-18T03:38:11.007Z,1015.87
2018-05-18T03:39:10.991Z,1015.87
2018-05-18T03:40:10.974Z,1015.85
2018-05-18T03:41:10.957Z,1015.83
2018-05-18T03:42:10.946Z,1015.83
2018-05-18T03:43:10.918Z,1015.81
2018-05-18T03:44:10.909Z,1015.84
2018-05-18T03:45:10.883Z,1015.79
2018-05-18T03:46:10.865Z,1015.84
2018-05-18T03:47:10.848Z,1015.82
2018-05-18T03:48:10.831Z,1015.86
2018-05-18T03:49:10.822Z,1015.81
2018-05-18T03:50:10.793Z,1015.81
2018-05-18T03:51:10.778Z,1015.85
2018-05-18T03:52:10.759Z,1015.84
2018-05-18T03:53:10.742Z,1015.87
2018-05-18T03:54:10.730Z,1015.92
2018-05-18T03:55:10.703Z,1015.91
2018-05-18T03:56:10.688Z,1015.91
2018-05-18T03:57:10.669Z,1015.92
2018-05-18T03:58:10.658Z,1015.98
2018-05-18T03:59:10.649Z,1015.98
2018-05-18T04:00:10.617Z,1015.98
2018-05-18T04:01:10.599Z,1015.93
2018-05-18T04:02:10.580Z,1015.92
2018-05-18T04:03:10.566Z,1015.99
2018-05-18T04:04:10.545Z,1015.96
2018-05-18T04:05:10.529Z,1015.98
2018-05-18T04:06:10.515Z,1016.01
2018-05-18T04:07:10.491Z,1015.97
2018-05-18T04:08:10.475Z,1015.99
2018-05-18T04:09:10.455Z,1016.02
2018-05-18T04:10:10.440Z,1015.96
2018-05-18T04:11:10.420Z,1015.99
2018-05-18T04:12:10.401Z,1016.02
2018-05-18T04:13:10.385Z,1016.07
2018-05-18T04:14:10.370Z,1016.02
2018-05-18T04:15:10.351Z,1016.03
2018-05-18T04:16:10.334Z,1016.02
2018-05-18T04:17:10.315Z,1016.02
2018-05-18T04:18:10.299Z,1016.03
2018-05-18T04:19:10.287Z,1016.08
2018-05-18T04:20:10.272Z,1016.05
2018-05-18T04:21:10.244Z,1016.06
2018-05-18T04:22:10.226Z,1016.10
2018-05-18T04:23:10.208Z,1016.07
2018-05-18T04:24:10.191Z,1016.10
2018-05-18T04:25:10.173Z,1016.10
2018-05-18T04:26:10.154Z,1016.11
2018-05-18T04:27:10.136Z,1016.12
2018-05-18T04:28:10.119Z,1016.11
2018-05-18T04:29:10.102Z,1016.16
2018-05-18T04:30:10.130Z,1016.14
2018-05-18T04:31:10.066Z,1016.11
2018-05-18T04:32:10.049Z,1016.11
2018-05-18T04:33:10.029Z,1016.16
2018-05-18T04:34:10.013Z,1016.16
2018-05-18T04:35:10.016Z,1016.16
2018-05-18T04:36:09.976Z,1016.16
2018-05-18T04:37:09.959Z,1016.12
2018-05-18T04:38:09.941Z,1016.16
2018-05-18T04:39:09.925Z,1016.17
2018-05-18T04:40:09.917Z,1016.18
2018-05-18T04:41:09.893Z,1016.19
2018-05-18T04:42:09.872Z,1016.18
2018-05-18T04:43:09.858Z,1016.20
2018-05-18T04:44:09.836Z,1016.19
2018-05-18T04:45:09.823Z,1016.17
2018-05-18T04:46:09.801Z,1016.17
2018-05-18T04:47:09.783Z,1016.18
2018-05-18T04:48:09.765Z,1016.23
2018-05-18T04:49:09.748Z,1016.22
2018-05-18T04:50:09.733Z,1016.23
2018-05-18T04:51:09.711Z,1016.22
2018-05-18T04:52:09.706Z,1016.26
2018-05-18T04:53:09.678Z,1016.24
2018-05-18T04:54:09.661Z,1016.27
2018-05-18T04:55:09.641Z,1016.30
2018-05-18T04:56:09.635Z,1016.33
2018-05-18T04:57:09.616Z,1016.33
2018-05-18T04:58:09.590Z,1016.28
2018-05-18T04:59:09.572Z,1016.30
2018-05-18T05:00:09.555Z,1016.31
2018-05-18T05:01:09.541Z,1016.28
2018-05-18T05:02:09.519Z,1016.32
2018-05-18T05:03:09.504Z,1016.31
2018-05-18T05:04:09.485Z,1016.32
2018-05-18T05:05:09.467Z,1016.32
2018-05-18T05:06:09.457Z,1016.33
2018-05-18T05:07:09.433Z,1016.38
2018-05-18T05:08:09.414Z,1016.36
2018-05-18T05:09:09.405Z,1016.35
2018-05-18T05:10:09.398Z,1016.35
2018-05-18T05:11:09.363Z,1016.37
2018-05-18T05:12:09.346Z,1016.39
2018-05-18T05:13:09.333Z,1016.38
2018-05-18T05:14:09.319Z,1016.41
2018-05-18T05:15:09.293Z,1016.39
2018-05-18T05:16:09.288Z,1016.39
2018-05-18T05:17:09.259Z,1016.39
2018-05-18T05:18:09.243Z,1016.42
2018-05-18T05:19:09.232Z,1016.42
2018-05-18T05:20:09.224Z,1016.42
2018-05-18T05:21:09.191Z,1016.48
2018-05-18T05:22:09.174Z,1016.47
2018-05-18T05:23:09.156Z,1016.48
2018-05-18T05:24:09.148Z,1016.55
2018-05-18T05:25:09.129Z,1016.52
2018-05-18T05:26:09.110Z,1016.53
2018-05-18T05:27:09.089Z,1016.58
2018-05-18T05:28:09.071Z,1016.55
2018-05-18T05:29:09.055Z,1016.53
2018-05-18T05:30:09.047Z,1016.54
2018-05-18T05:31:09.018Z,1016.60
2018-05-18T05:32:09.002Z,1016.60
2018-05-18T05:33:08.990Z,1016.60
2018-05-18T05:34:08.971Z,1016.65
2018-05-18T05:35:08.951Z,1016.63
2018-05-18T05:36:08.940Z,1016.66
2018-05-18T05:37:08.917Z,1016.63
2018-05-18T05:38:08.901Z,1016.63
2018-05-18T05:39:08.883Z,1016.61
2018-05-18T05:40:08.866Z,1016.62
2018-05-18T05:41:08.866Z,1016.63
2018-05-18T05:42:08.833Z,1016.67
2018-05-18T05:43:08.816Z,1016.68
2018-05-18T05:44:08.805Z,1016.63
2018-05-18T05:45:08.795Z,1016.60
2018-05-18T05:46:08.773Z,1016.64
2018-05-18T05:47:08.752Z,1016.66
2018-05-18T05:48:08.736Z,1016.66
2018-05-18T05:49:08.714Z,1016.66
2018-05-18T05:50:08.700Z,1016.66
2018-05-18T05:51:08.687Z,1016.63
2018-05-18T05:52:08.664Z,1016.69
2018-05-18T05:53:08.648Z,1016.67
2018-05-18T05:54:08.633Z,1016.67
2018-05-18T05:55:08.616Z,1016.70
2018-05-18T05:56:08.597Z,1016.71
2018-05-18T05:57:08.584Z,1016.66
2018-05-18T05:58:08.566Z,1016.69
2018-05-18T05:59:08.554Z,1016.69
2018-05-18T06:00:08.540Z,1016.68
2018-05-18T06:01:08.516Z,1016.70
2018-05-18T06:02:08.502Z,1016.73
2018-05-18T06:03:08.484Z,1016.70
2018-05-18T06:04:08.471Z,1016.75
2018-05-18T06:05:08.460Z,1016.75
2018-05-18T06:06:08.436Z,1016.77
2018-05-18T06:07:08.418Z,1016.74
2018-05-18T06:08:08.406Z,1016.71
2018-05-18T06:09:08.399Z,1016.72
2018-05-18T06:10:08.372Z,1016.75
2018-05-18T06:11:08.354Z,1016.80
2018-05-18T06:12:08.424Z,1016.81
2018-05-18T06:13:08.331Z,1016.81
2018-05-18T06:14:08.309Z,1016.80
2018-05-18T06:15:08.299Z,1016.79
2018-05-18T06:16:08.291Z,1016.85
2018-05-18T06:17:08.269Z,1016.87
2018-05-18T06:18:08.245Z,1016.87
2018-05-18T06:19:08.227Z,1016.90
2018-05-18T06:20:08.223Z,1016.91
2018-05-18T06:21:08.198Z,1016.91
2018-05-18T06:22:08.189Z,1016.93
2018-05-18T06:23:08.169Z,1016.94
2018-05-18T06:24:08.153Z,1016.93
2018-05-18T06:25:08.139Z,1016.95
2018-05-18T06:26:08.132Z,1016.92
2018-05-18T06:27:08.116Z,1016.92
2018-05-18T06:28:08.090Z,1017.00
2018-05-18T06:29:08.078Z,1017.00
2018-05-18T06:30:08.061Z,1016.99
2018-05-18T06:31:08.046Z,1017.03
2018-05-18T06:32:08.034Z,1017.01
2018-05-18T06:33:08.015Z,1017.03
2018-05-18T06:34:08.009Z,1017.02
2018-05-18T06:35:08.137Z,1017.06
2018-05-18T06:36:07.980Z,1017.06
2018-05-18T06:37:07.958Z,1017.07
2018-05-18T06:38:07.951Z,1017.07
2018-05-18T06:39:07.933Z,1017.12
2018-05-18T06:40:07.930Z,1017.14
2018-05-18T06:41:07.901Z,1017.18
2018-05-18T06:42:07.892Z,1017.13
2018-05-18T06:43:07.870Z,1017.14
2018-05-18T06:44:07.852Z,1017.13
2018-05-18T06:45:07.841Z,1017.11
2018-05-18T06:46:07.835Z,1017.05
2018-05-18T06:47:07.808Z,1017.07
2018-05-18T06:48:07.801Z,1017.07
2018-05-18T06:49:07.781Z,1017.04
2018-05-18T06:50:07.774Z,1017.06
2018-05-18T06:51:07.750Z,1017.09
2018-05-18T06:52:07.735Z,1017.05
2018-05-18T06:53:07.733Z,1017.10
2018-05-18T06:54:07.705Z,1017.08
2018-05-18T06:55:07.689Z,1017.03
2018-05-18T06:56:07.683Z,1017.09
2018-05-18T06:57:07.680Z,1017.07
2018-05-18T06:58:07.643Z,1017.07
2018-05-18T06:59:07.640Z,1017.15
2018-05-18T07:00:07.627Z,1017.11
2018-05-18T07:01:07.601Z,1017.19
2018-05-18T07:02:07.589Z,1017.18
2018-05-18T07:03:07.580Z,1017.28
2018-05-18T07:04:07.591Z,1017.24
2018-05-18T07:05:07.543Z,1017.23
2018-05-18T07:06:07.529Z,1017.23
2018-05-18T07:07:07.518Z,1017.23
2018-05-18T07:08:07.500Z,1017.24
2018-05-18T07:09:07.485Z,1017.26
2018-05-18T07:10:07.472Z,1017.27
2018-05-18T07:11:07.458Z,1017.26
2018-05-18T07:12:07.444Z,1017.22
2018-05-18T07:13:07.437Z,1017.24
2018-05-18T07:14:07.417Z,1017.24
2018-05-18T07:15:07.413Z,1017.23
2018-05-18T07:16:07.401Z,1017.21
2018-05-18T07:17:07.375Z,1017.20
2018-05-18T07:18:07.378Z,1017.17
2018-05-18T07:19:07.347Z,1017.15
2018-05-18T07:20:07.338Z,1017.18
2018-05-18T07:21:07.321Z,1017.11
2018-05-18T07:22:07.311Z,1017.13
2018-05-18T07:23:07.329Z,1017.10
2018-05-18T07:24:07.379Z,1017.17
2018-05-18T07:25:07.272Z,1017.15
2018-05-18T07:26:07.257Z,1017.22
2018-05-18T07:27:07.236Z,1017.23
2018-05-18T07:28:07.223Z,1017.20
2018-05-18T07:29:07.210Z,1017.15
2018-05-18T07:30:07.231Z,1017.16
2018-05-18T07:31:07.181Z,1017.17
2018-05-18T07:32:07.172Z,1017.20
2018-05-18T07:33:07.168Z,1017.22
2018-05-18T07:34:07.141Z,1017.20
2018-05-18T07:35:07.126Z,1017.20
2018-05-18T07:36:07.163Z,1017.23
2018-05-18T07:37:07.101Z,1017.19
2018-05-18T07:38:07.094Z,1017.22
2018-05-18T07:39:07.082Z,1017.12
2018-05-18T07:40:07.073Z,1017.24
2018-05-18T07:41:07.048Z,1017.27
2018-05-18T07:42:07.035Z,1017.30
2018-05-18T07:43:07.026Z,1017.27
2018-05-18T07:44:07.006Z,1017.26
2018-05-18T07:45:09.613Z,1017.25
2018-05-18T07:46:06.987Z,1017.23
2018-05-18T07:47:06.966Z,1017.23
2018-05-18T07:48:06.953Z,1017.23
2018-05-18T07:49:06.941Z,1017.22
2018-05-18T07:50:06.996Z,1017.19
2018-05-18T07:51:07.720Z,1017.23
2018-05-18T07:52:06.903Z,1017.24
2018-05-18T07:53:06.886Z,1017.22
2018-05-18T07:54:06.872Z,1017.26
2018-05-18T07:55:06.862Z,1017.27
2018-05-18T07:56:06.845Z,1017.25
2018-05-18T07:57:06.832Z,1017.26
2018-05-18T07:58:06.824Z,1017.29
2018-05-18T07:59:06.806Z,1017.26
2018-05-18T08:00:06.793Z,1017.27
2018-05-18T08:01:06.793Z,1017.28
2018-05-18T08:02:06.765Z,1017.25
2018-05-18T08:03:06.754Z,1017.28
2018-05-18T08:04:06.747Z,1017.29
2018-05-18T08:05:06.751Z,1017.31
2018-05-18T08:06:06.713Z,1017.31
2018-05-18T08:07:06.703Z,1017.33
2018-05-18T08:08:06.685Z,1017.30
2018-05-18T08:09:06.672Z,1017.36
2018-05-18T08:10:06.659Z,1017.32
2018-05-18T08:11:06.658Z,1017.37
2018-05-18T08:12:06.691Z,1017.35
2018-05-18T08:13:06.618Z,1017.38
2018-05-18T08:14:06.607Z,1017.39
2018-05-18T08:15:06.614Z,1017.46
2018-05-18T08:16:06.597Z,1017.45
2018-05-18T08:17:06.569Z,1017.46
2018-05-18T08:18:06.554Z,1017.42
2018-05-18T08:19:06.546Z,1017.41
2018-05-18T08:20:06.528Z,1017.47
2018-05-18T08:21:06.522Z,1017.42
2018-05-18T08:22:06.502Z,1017.44
2018-05-18T08:23:06.496Z,1017.49
2018-05-18T08:24:06.476Z,1017.44
2018-05-18T08:25:06.462Z,1017.45
2018-05-18T08:26:06.452Z,1017.46
2018-05-18T08:27:06.491Z,1017.44
2018-05-18T08:28:06.424Z,1017.45
2018-05-18T08:29:06.423Z,1017.40
2018-05-18T08:30:06.400Z,1017.37
2018-05-18T08:31:06.388Z,1017.42
2018-05-18T08:32:06.374Z,1017.40
2018-05-18T08:33:06.370Z,1017.39
2018-05-18T08:34:06.350Z,1017.38
2018-05-18T08:35:06.346Z,1017.40
2018-05-18T08:36:06.326Z,1017.36
2018-05-18T08:37:06.321Z,1017.36
2018-05-18T08:38:06.308Z,1017.40
2018-05-18T08:39:06.295Z,1017.43
2018-05-18T08:40:06.277Z,1017.40
2018-05-18T08:41:06.263Z,1017.38
2018-05-18T08:42:06.250Z,1017.42
2018-05-18T08:43:06.243Z,1017.43
2018-05-18T08:44:06.226Z,1017.39
2018-05-18T08:45:06.214Z,1017.38
2018-05-18T08:46:06.202Z,1017.41
2018-05-18T08:47:06.221Z,1017.44
2018-05-18T08:48:06.180Z,1017.51
2018-05-18T08:49:06.168Z,1017.46
2018-05-18T08:50:06.224Z,1017.46
2018-05-18T08:51:06.157Z,1017.48
2018-05-18T08:52:06.186Z,1017.48
2018-05-18T08:53:06.126Z,1017.44
2018-05-18T08:54:06.121Z,1017.42
2018-05-18T08:55:06.095Z,1017.40
2018-05-18T08:56:06.084Z,1017.40
2018-05-18T08:57:06.096Z,1017.41
2018-05-18T08:58:06.072Z,1017.33
2018-05-18T08:59:06.049Z,1017.39
2018-05-18T09:00:06.037Z,1017.41
2018-05-18T09:01:06.036Z,1017.42
2018-05-18T09:02:06.017Z,1017.39
2018-05-18T09:03:06.007Z,1017.38
2018-05-18T09:04:05.992Z,1017.39
2018-05-18T09:05:05.997Z,1017.40
2018-05-18T09:06:05.971Z,1017.38
2018-05-18T09:07:05.967Z,1017.36
2018-05-18T09:08:05.953Z,1017.38
2018-05-18T09:09:05.937Z,1017.33
2018-05-18T09:10:05.926Z,1017.34
2018-05-18T09:11:05.913Z,1017.28
2018-05-18T09:12:05.910Z,1017.29
2018-05-18T09:13:05.912Z,1017.32
2018-05-18T09:14:05.881Z,1017.27
2018-05-18T09:15:05.868Z,1017.28
2018-05-18T09:16:05.858Z,1017.28
2018-05-18T09:17:05.849Z,1017.31
2018-05-18T09:18:05.838Z,1017.31
2018-05-18T09:19:05.834Z,1017.33
2018-05-18T09:20:05.817Z,1017.35
2018-05-18T09:21:05.801Z,1017.33
2018-05-18T09:22:05.798Z,1017.37
2018-05-18T09:23:05.783Z,1017.41
2018-05-18T09:24:05.779Z,1017.38
2018-05-18T09:25:05.763Z,1017.36
2018-05-18T09:26:05.757Z,1017.35
2018-05-18T09:27:05.886Z,1017.35
2018-05-18T09:28:05.725Z,1017.37
2018-05-18T09:29:05.716Z,1017.41
2018-05-18T09:30:05.708Z,1017.43
2018-05-18T09:31:05.695Z,1017.44
2018-05-18T09:32:05.695Z,1017.43
2018-05-18T09:33:05.674Z,1017.46
2018-05-18T09:34:05.673Z,1017.49
2018-05-18T09:35:05.652Z,1017.53
2018-05-18T09:36:05.644Z,1017.53
2018-05-18T09:37:05.632Z,1017.54
2018-05-18T09:38:05.631Z,1017.51
2018-05-18T09:39:05.616Z,1017.55
2018-05-18T09:40:05.602Z,1017.43
2018-05-18T09:41:05.605Z,1017.56
2018-05-18T09:42:05.591Z,1017.47
2018-05-18T09:43:05.573Z,1017.48
2018-05-18T09:44:05.561Z,1017.41
2018-05-18T09:45:05.635Z,1017.46
2018-05-18T09:46:05.560Z,1017.45
2018-05-18T09:47:05.549Z,1017.44
2018-05-18T09:48:05.524Z,1017.47
2018-05-18T09:49:05.534Z,1017.37
2018-05-18T09:50:05.509Z,1017.41
2018-05-18T09:51:05.499Z,1017.35
2018-05-18T09:52:05.504Z,1017.29
2018-05-18T09:53:05.486Z,1017.33
2018-05-18T09:54:05.482Z,1017.29
2018-05-18T09:55:05.693Z,1017.29
2018-05-18T09:56:05.456Z,1017.32
2018-05-18T09:57:05.446Z,1017.35
2018-05-18T09:58:05.437Z,1017.38
2018-05-18T09:59:05.431Z,1017.42
2018-05-18T10:00:05.418Z,1017.36
2018-05-18T10:01:05.412Z,1017.35
2018-05-18T10:02:05.406Z,1017.36
2018-05-18T10:03:05.398Z,1017.39
2018-05-18T10:04:05.389Z,1017.50
2018-05-18T10:05:05.401Z,1017.41
2018-05-18T10:06:05.371Z,1017.47
2018-05-18T10:07:05.415Z,1017.40
2018-05-18T10:08:05.357Z,1017.33
2018-05-18T10:09:05.353Z,1017.34
2018-05-18T10:10:05.346Z,1017.40
2018-05-18T10:11:05.355Z,1017.34
2018-05-18T10:12:05.334Z,1017.36
2018-05-18T10:13:05.342Z,1017.38
2018-05-18T10:14:05.324Z,1017.40
2018-05-18T10:15:05.317Z,1017.34
2018-05-18T10:16:05.313Z,1017.37
2018-05-18T10:17:05.310Z,1017.43
2018-05-18T10:18:05.311Z,1017.34
2018-05-18T10:19:05.316Z,1017.26
2018-05-18T10:20:05.298Z,1017.21
2018-05-18T10:21:05.296Z,1017.20
2018-05-18T10:22:05.299Z,1017.15
2018-05-18T10:23:05.289Z,1017.09
2018-05-18T10:24:05.289Z,1017.09
2018-05-18T10:25:05.287Z,1017.05
2018-05-18T10:26:05.294Z,1016.98
2018-05-18T10:27:05.347Z,1016.97
2018-05-18T10:28:05.296Z,1016.94
2018-05-18T10:29:05.287Z,1016.91
2018-05-18T10:30:05.280Z,1016.99
2018-05-18T10:31:05.286Z,1017.23
2018-05-18T10:32:05.276Z,1017.18
2018-05-18T10:33:05.279Z,1017.44
2018-05-18T10:34:05.279Z,1017.47
2018-05-18T10:35:05.278Z,1017.49
2018-05-18T10:36:05.276Z,1017.36
2018-05-18T10:37:05.280Z,1017.05
2018-05-18T10:38:05.275Z,1017.09
2018-05-18T10:39:05.274Z,1017.40
2018-05-18T10:40:05.279Z,1017.44
2018-05-18T10:41:05.271Z,1017.48
2018-05-18T10:42:05.270Z,1017.48
2018-05-18T10:43:05.269Z,1017.47
2018-05-18T10:44:05.265Z,1017.28
2018-05-18T10:45:05.264Z,1017.37
2018-05-18T10:46:05.262Z,1017.27
2018-05-18T10:47:05.264Z,1017.49
2018-05-18T10:48:05.259Z,1017.50
2018-05-18T10:49:05.263Z,1017.47
2018-05-18T10:50:05.256Z,1017.51
2018-05-18T10:51:05.247Z,1017.42
2018-05-18T10:52:05.246Z,1017.39
2018-05-18T10:53:05.289Z,1017.41
2018-05-18T10:54:05.246Z,1017.47
2018-05-18T10:55:05.237Z,1017.46
2018-05-18T10:56:05.236Z,1017.48
2018-05-18T10:57:05.233Z,1017.48
2018-05-18T10:58:05.226Z,1017.51
2018-05-18T10:59:05.225Z,1017.40
2018-05-18T11:00:05.214Z,1017.57
2018-05-18T11:01:05.211Z,1017.68
2018-05-18T11:02:05.212Z,1017.75
2018-05-18T11:03:05.205Z,1017.65
2018-05-18T11:04:05.199Z,1017.71
2018-05-18T11:05:05.197Z,1017.84
2018-05-18T11:06:05.196Z,1017.72
2018-05-18T11:07:05.190Z,1017.47
2018-05-18T11:08:05.198Z,1017.54
2018-05-18T11:09:05.190Z,1017.43
2018-05-18T11:10:05.187Z,1017.51
2018-05-18T11:11:05.183Z,1017.70
2018-05-18T11:12:05.186Z,1018.06
2018-05-18T11:13:05.181Z,1018.09
2018-05-18T11:14:05.258Z,1018.10
2018-05-18T11:15:05.182Z,1018.23
2018-05-18T11:16:05.177Z,1018.35
2018-05-18T11:17:05.183Z,1018.39
2018-05-18T11:18:05.177Z,1018.46
2018-05-18T11:19:05.174Z,1018.29
2018-05-18T11:20:05.214Z,1017.40
2018-05-18T11:21:05.188Z,1017.86
2018-05-18T11:22:05.172Z,1018.87
2018-05-18T11:23:05.172Z,1018.08
2018-05-18T11:24:05.176Z,1017.71
2018-05-18T11:25:05.173Z,1017.46
2018-05-18T11:26:05.173Z,1018.12
2018-05-18T11:27:05.180Z,1018.04
2018-05-18T11:28:05.177Z,1017.50
2018-05-18T11:29:05.175Z,1017.28
2018-05-18T11:30:05.168Z,1017.25
2018-05-18T11:31:05.182Z,1017.33
2018-05-18T11:32:05.166Z,1018.07
2018-05-18T11:33:05.280Z,1018.03
2018-05-18T11:34:05.166Z,1017.93
2018-05-18T11:35:05.160Z,1017.90
2018-05-18T11:36:05.159Z,1017.84
2018-05-18T11:37:05.155Z,1017.75
2018-05-18T11:38:05.161Z,1017.61
2018-05-18T11:39:05.200Z,1017.64
2018-05-18T11:40:05.147Z,1017.41
2018-05-18T11:41:05.155Z,1017.41
2018-05-18T11:42:05.152Z,1017.63
2018-05-18T11:43:05.145Z,1017.40
2018-05-18T11:44:05.142Z,1017.26
2018-05-18T11:45:05.137Z,1017.18
2018-05-18T11:46:05.136Z,1017.10
2018-05-18T11:47:05.133Z,1017.17
2018-05-18T11:48:05.174Z,1017.04
2018-05-18T11:49:05.127Z,1017.09
2018-05-18T11:50:05.136Z,1017.05
2018-05-18T11:51:05.118Z,1017.03
2018-05-18T11:52:05.117Z,1016.99
2018-05-18T11:53:05.108Z,1016.98
2018-05-18T11:54:05.105Z,1016.95
2018-05-18T11:55:05.098Z,1016.94
2018-05-18T11:56:05.099Z,1016.86
2018-05-18T11:57:05.092Z,1016.87
2018-05-18T11:58:05.084Z,1016.91
2018-05-18T11:59:05.077Z,1016.91
2018-05-18T12:00:05.075Z,1016.87
2018-05-18T12:01:05.064Z,1016.95
2018-05-18T12:02:05.073Z,1016.87
2018-05-18T12:03:05.054Z,1016.82
2018-05-18T12:04:05.040Z,1016.81
2018-05-18T12:05:05.033Z,1016.86